Time;durP1;ratioP1;P1;durP2;ratioP2;P2;SDS_P1;SDS_P2;PMS_P1;PMS_P2;Temp;Humidity;BMP_temperature;BMP_pressure;BME280_temperature;BME280_humidity;BME280_pressure;Samples;Min_cycle;Max_cycle;Signal;HPM_P1;HPM_P2
2023/06/22 00:01:22;;;;;;;5.27;4.77;;;21.90;99.90;;;;;;5041107;28;20232;-61
2023/06/22 00:03:49;;;;;;;5.40;4.83;;;21.90;99.90;;;;;;5038394;28;20208;-61
2023/06/22 00:06:17;;;;;;;5.93;4.93;;;21.90;99.90;;;;;;5043547;28;20236;-62
2023/06/22 00:08:44;;;;;;;7.90;4.77;;;21.90;99.90;;;;;;5044434;28;20258;-61
2023/06/22 00:11:11;;;;;;;9.67;6.50;;;21.80;99.90;;;;;;5044465;28;21779;-61
2023/06/22 00:13:38;;;;;;;7.00;5.83;;;21.60;99.90;;;;;;5043368;28;20681;-61
2023/06/22 00:16:05;;;;;;;6.80;5.70;;;21.50;99.90;;;;;;5044146;28;20196;-61
2023/06/22 00:18:32;;;;;;;6.77;6.00;;;21.60;99.90;;;;;;5040559;28;20687;-62
2023/06/22 00:21:00;;;;;;;7.63;6.80;;;21.50;99.90;;;;;;5045185;28;20229;-61
2023/06/22 00:23:27;;;;;;;7.47;6.77;;;21.40;99.90;;;;;;5041179;28;20296;-61
2023/06/22 00:25:54;;;;;;;6.97;6.37;;;21.30;99.90;;;;;;5041731;28;20291;-61
2023/06/22 00:28:21;;;;;;;6.30;5.63;;;21.30;99.90;;;;;;5040452;28;20200;-62
2023/06/22 00:30:49;;;;;;;8.63;7.77;;;21.50;99.90;;;;;;5041174;28;20216;-61
2023/06/22 00:33:16;;;;;;;8.00;6.77;;;21.50;99.90;;;;;;5039501;28;20226;-62
2023/06/22 00:35:43;;;;;;;7.67;6.73;;;21.30;99.90;;;;;;5038406;28;20255;-61
2023/06/22 00:38:11;;;;;;;8.77;6.03;;;21.30;99.90;;;;;;5041082;28;20200;-64
2023/06/22 00:40:38;;;;;;;7.30;6.40;;;21.30;99.90;;;;;;5038294;28;20200;-61
2023/06/22 00:43:06;;;;;;;7.30;6.60;;;21.40;99.90;;;;;;5041839;28;20652;-61
2023/06/22 00:45:33;;;;;;;9.47;6.33;;;21.50;99.90;;;;;;5038480;28;20215;-61
2023/06/22 00:48:00;;;;;;;9.37;7.13;;;21.50;99.90;;;;;;5042566;28;20256;-61
2023/06/22 00:50:33;;;;;;;8.00;7.20;;;21.30;99.90;;;;;;5042849;28;20963;-62
2023/06/22 00:53:08;;;;;;;8.13;7.43;;;21.20;99.90;;;;;;5043014;28;20232;-61
2023/06/22 00:55:43;;;;;;;8.67;7.20;;;21.10;99.90;;;;;;5040268;28;20568;-61
2023/06/22 00:58:11;;;;;;;9.03;6.97;;;21.20;99.90;;;;;;5028654;28;20215;-61
2023/06/22 01:00:41;;;;;;;8.17;6.63;;;21.30;99.90;;;;;;5039789;28;20707;-60
2023/06/22 01:03:09;;;;;;;9.57;8.13;;;21.30;99.90;;;;;;5039615;28;20205;-62
2023/06/22 01:05:38;;;;;;;9.47;7.60;;;21.20;99.90;;;;;;5041441;28;20873;-61
2023/06/22 01:08:20;;;;;;;8.70;7.30;;;21.10;99.90;;;;;;5021689;28;20237;-61
2023/06/22 01:10:59;;;;;;;8.73;7.83;;;21.20;99.90;;;;;;5042957;28;20618;-65
2023/06/22 01:13:56;;;;;;;8.70;7.90;;;21.20;99.90;;;;;;5036203;28;20246;-63
2023/06/22 01:16:32;;;;;;;9.63;8.10;;;21.10;99.90;;;;;;5039327;28;20242;-61
2023/06/22 01:19:29;;;;;;;10.80;8.57;;;21.10;99.90;;;;;;5020792;28;20274;-60
2023/06/22 01:21:57;;;;;;;11.83;8.97;;;21.00;99.90;;;;;;5037713;28;20208;-64
2023/06/22 01:24:35;;;;;;;9.27;8.27;;;20.90;99.90;;;;;;5039379;28;20239;-63
2023/06/22 01:27:31;;;;;;;9.80;8.70;;;20.90;99.90;;;;;;5041859;28;20655;-62
2023/06/22 01:30:01;;;;;;;9.00;8.10;;;21.00;99.90;;;;;;5040192;28;20242;-60
2023/06/22 01:32:34;;;;;;;9.53;8.40;;;20.90;99.90;;;;;;5041172;28;20209;-61
2023/06/22 01:35:03;;;;;;;9.73;8.73;;;20.90;99.90;;;;;;5038799;28;20905;-61
2023/06/22 01:37:32;;;;;;;9.90;8.70;;;20.90;99.90;;;;;;5038991;28;20305;-61
2023/06/22 01:39:59;;;;;;;9.67;8.67;;;20.90;99.90;;;;;;5038266;28;20220;-62
2023/06/22 01:42:27;;;;;;;10.17;8.97;;;20.80;99.90;;;;;;5043012;28;20242;-62
2023/06/22 01:44:54;;;;;;;12.57;9.17;;;20.90;99.90;;;;;;5041170;28;20285;-61
2023/06/22 01:47:22;;;;;;;9.87;8.80;;;20.70;99.90;;;;;;5041118;28;20223;-62
2023/06/22 01:49:53;;;;;;;10.07;9.03;;;20.70;99.90;;;;;;5022722;28;20211;-61
2023/06/22 01:52:21;;;;;;;14.07;8.90;;;20.70;99.90;;;;;;5041273;28;20649;-61
2023/06/22 01:54:48;;;;;;;11.30;9.90;;;20.60;99.90;;;;;;5040311;28;20221;-62
2023/06/22 01:57:15;;;;;;;12.07;9.17;;;20.70;99.90;;;;;;5039838;28;20205;-61
2023/06/22 01:59:59;;;;;;;10.77;9.37;;;20.60;99.90;;;;;;5040407;28;20588;-61
2023/06/22 02:02:43;;;;;;;10.50;9.40;;;20.70;99.90;;;;;;5023732;28;20211;-61
2023/06/22 02:05:15;;;;;;;12.07;9.23;;;20.60;99.90;;;;;;5039002;28;20199;-61
2023/06/22 02:07:48;;;;;;;10.53;9.43;;;20.60;99.90;;;;;;5023922;28;20193;-61
2023/06/22 02:10:19;;;;;;;12.33;10.00;;;20.50;99.90;;;;;;5040300;28;20269;-60
2023/06/22 02:12:46;;;;;;;11.13;9.43;;;20.50;99.90;;;;;;5040313;28;20254;-61
2023/06/22 02:15:14;;;;;;;10.63;9.13;;;20.50;99.90;;;;;;5041457;28;20271;-60
2023/06/22 02:17:44;;;;;;;10.97;9.87;;;20.50;99.90;;;;;;5039983;28;20254;-60
2023/06/22 02:20:13;;;;;;;11.30;9.77;;;20.40;99.90;;;;;;5041297;28;20323;-61
2023/06/22 02:22:40;;;;;;;10.97;9.83;;;20.40;99.90;;;;;;5039051;28;20242;-60
2023/06/22 02:25:08;;;;;;;11.30;9.93;;;20.20;99.90;;;;;;5038325;28;20609;-60
2023/06/22 02:27:34;;;;;;;11.40;10.30;;;20.10;99.90;;;;;;5018902;28;20204;-60
2023/06/22 02:30:01;;;;;;;11.27;10.17;;;20.20;99.90;;;;;;5038388;28;20554;-62
2023/06/22 02:32:28;;;;;;;10.93;9.80;;;20.20;99.90;;;;;;5042259;28;20619;-61
2023/06/22 02:34:55;;;;;;;10.60;9.50;;;20.30;99.90;;;;;;5036902;28;20222;-60
2023/06/22 02:37:25;;;;;;;11.97;10.17;;;20.30;99.90;;;;;;5041841;28;20212;-62
2023/06/22 02:39:52;;;;;;;10.93;9.73;;;20.20;99.90;;;;;;5040794;28;20200;-60
2023/06/22 02:42:21;;;;;;;10.50;9.40;;;20.20;99.90;;;;;;5037989;28;20228;-61
2023/06/22 02:44:48;;;;;;;10.50;9.40;;;20.30;99.90;;;;;;5021297;28;20196;-61
2023/06/22 02:47:15;;;;;;;11.13;9.97;;;20.30;99.90;;;;;;5040799;28;20295;-61
2023/06/22 02:49:44;;;;;;;11.40;9.67;;;20.30;99.90;;;;;;5039323;28;20207;-61
2023/06/22 02:52:11;;;;;;;13.07;9.40;;;20.20;99.90;;;;;;5041474;28;20210;-61
2023/06/22 02:54:38;;;;;;;12.17;9.77;;;20.20;99.90;;;;;;5037683;28;20223;-62
2023/06/22 02:57:05;;;;;;;12.87;9.50;;;20.20;99.90;;;;;;5041239;28;21032;-61
2023/06/22 02:59:32;;;;;;;10.37;9.30;;;20.20;99.90;;;;;;5020719;28;20262;-60
2023/06/22 03:02:00;;;;;;;10.83;9.40;;;20.20;99.90;;;;;;5039184;28;20200;-61
2023/06/22 03:04:27;;;;;;;10.70;9.43;;;20.10;99.90;;;;;;5035956;28;20199;-63
2023/06/22 03:06:54;;;;;;;10.63;9.53;;;20.20;99.90;;;;;;5040188;28;20746;-60
2023/06/22 03:09:21;;;;;;;9.77;8.87;;;20.20;99.90;;;;;;5039398;28;20199;-61
2023/06/22 03:11:48;;;;;;;11.33;8.97;;;20.10;99.90;;;;;;5037624;28;20255;-62
2023/06/22 03:14:15;;;;;;;10.00;9.07;;;20.00;99.90;;;;;;5036696;28;20212;-61
2023/06/22 03:16:42;;;;;;;11.20;9.90;;;20.10;99.90;;;;;;5040586;28;20704;-61
2023/06/22 03:19:09;;;;;;;10.90;8.97;;;20.20;99.90;;;;;;5039624;28;20227;-63
2023/06/22 03:21:38;;;;;;;10.50;9.47;;;20.10;99.90;;;;;;5037375;28;20200;-63
2023/06/22 03:24:06;;;;;;;13.33;9.43;;;20.00;99.90;;;;;;5039276;28;20297;-63
2023/06/22 03:26:34;;;;;;;10.10;9.10;;;20.00;99.90;;;;;;5037644;28;20208;-62
2023/06/22 03:29:01;;;;;;;10.40;9.30;;;20.00;99.90;;;;;;5038215;28;20208;-61
2023/06/22 03:31:28;;;;;;;10.67;9.30;;;20.10;99.90;;;;;;5011334;28;20208;-62
2023/06/22 03:33:55;;;;;;;10.10;9.10;;;20.10;99.90;;;;;;5036131;28;20217;-62
2023/06/22 03:36:22;;;;;;;12.70;10.07;;;20.10;99.90;;;;;;5013353;28;20218;-62
2023/06/22 03:38:50;;;;;;;10.23;9.13;;;20.00;99.90;;;;;;5036291;28;20206;-61
2023/06/22 03:41:17;;;;;;;12.27;8.83;;;20.00;99.90;;;;;;5037321;28;20254;-61
2023/06/22 03:43:44;;;;;;;12.30;9.00;;;20.00;99.90;;;;;;5008048;28;20595;-63
2023/06/22 03:46:11;;;;;;;13.10;9.00;;;20.00;99.90;;;;;;5035180;28;20605;-62
2023/06/22 03:48:38;;;;;;;10.67;9.20;;;20.00;99.90;;;;;;5016464;28;20230;-62
2023/06/22 03:51:05;;;;;;;10.23;8.97;;;19.90;99.90;;;;;;4671484;28;10000226;-61
2023/06/22 03:53:32;;;;;;;10.40;8.50;;;19.90;99.90;;;;;;5028575;28;20216;-60
2023/06/22 03:55:59;;;;;;;10.30;9.03;;;19.90;99.90;;;;;;5033467;28;20258;-60
2023/06/22 03:58:26;;;;;;;11.10;8.83;;;19.80;99.90;;;;;;5038187;28;20230;-62
2023/06/22 04:00:53;;;;;;;9.90;8.80;;;19.80;99.90;;;;;;5016198;28;20480;-60
2023/06/22 04:03:20;;;;;;;11.20;8.93;;;19.80;99.90;;;;;;5035152;28;20207;-62
2023/06/22 04:05:48;;;;;;;9.33;8.33;;;19.60;99.90;;;;;;5035333;28;20569;-66
2023/06/22 04:08:16;;;;;;;10.47;8.97;;;19.70;99.90;;;;;;5034587;28;20218;-62
2023/06/22 04:10:43;;;;;;;13.27;8.63;;;19.70;99.90;;;;;;5038760;28;20203;-62
2023/06/22 04:13:10;;;;;;;11.77;8.07;;;19.50;99.90;;;;;;5036766;28;20269;-62
2023/06/22 04:15:37;;;;;;;9.37;8.47;;;19.50;99.90;;;;;;5039453;28;20229;-63
2023/06/22 04:18:04;;;;;;;9.93;8.93;;;19.50;99.90;;;;;;5023105;28;20212;-63
2023/06/22 04:20:31;;;;;;;9.87;8.47;;;19.40;99.90;;;;;;5037464;28;20543;-61
2023/06/22 04:22:59;;;;;;;10.73;8.03;;;19.40;99.90;;;;;;5039581;28;20630;-62
2023/06/22 04:25:26;;;;;;;11.00;7.77;;;19.40;99.90;;;;;;5019924;28;20266;-61
2023/06/22 04:27:53;;;;;;;9.93;8.83;;;19.50;99.90;;;;;;5034406;28;20660;-62
2023/06/22 04:30:20;;;;;;;10.47;7.87;;;19.60;99.90;;;;;;5036475;28;20207;-62
2023/06/22 04:32:55;;;;;;;9.50;7.77;;;19.70;99.90;;;;;;5036698;28;20208;-60
2023/06/22 04:35:24;;;;;;;8.90;7.43;;;19.70;99.90;;;;;;5036391;28;20596;-61
2023/06/22 04:37:54;;;;;;;8.53;7.57;;;19.80;99.90;;;;;;5038153;28;20199;-60
2023/06/22 04:40:23;;;;;;;7.93;6.67;;;19.80;99.90;;;;;;5039673;28;20672;-62
2023/06/22 04:42:53;;;;;;;9.07;8.03;;;19.90;99.90;;;;;;5041775;28;20539;-59
2023/06/22 04:45:20;;;;;;;8.20;7.37;;;19.70;99.90;;;;;;5039833;28;20196;-60
2023/06/22 04:47:48;;;;;;;8.77;7.40;;;19.70;99.90;;;;;;5023099;28;20232;-64
2023/06/22 04:50:15;;;;;;;8.27;7.23;;;19.90;99.90;;;;;;5040278;28;20207;-62
2023/06/22 04:52:42;;;;;;;8.27;7.00;;;19.90;99.90;;;;;;5017740;28;20209;-62
2023/06/22 04:55:09;;;;;;;9.97;7.70;;;20.00;99.90;;;;;;5019358;28;20228;-62
2023/06/22 04:57:39;;;;;;;8.70;6.93;;;20.00;99.90;;;;;;5041238;28;20295;-62
2023/06/22 05:00:12;;;;;;;7.53;6.63;;;20.00;99.90;;;;;;5037156;28;20610;-62
2023/06/22 05:02:52;;;;;;;7.73;6.90;;;20.00;99.90;;;;;;5039490;28;20231;-62
2023/06/22 05:05:29;;;;;;;8.83;7.43;;;20.10;99.90;;;;;;5040818;28;20717;-62
2023/06/22 05:08:00;;;;;;;7.60;6.90;;;20.10;99.90;;;;;;5038657;28;20258;-62
2023/06/22 05:10:27;;;;;;;8.63;7.20;;;20.20;99.90;;;;;;5039383;28;20269;-62
2023/06/22 05:12:54;;;;;;;9.87;7.63;;;20.30;99.90;;;;;;5013575;28;20219;-62
2023/06/22 05:15:26;;;;;;;10.30;7.70;;;20.10;99.90;;;;;;5038934;28;20745;-62
2023/06/22 05:17:53;;;;;;;10.53;8.00;;;20.20;99.90;;;;;;5039868;28;20718;-62
2023/06/22 05:20:21;;;;;;;10.57;8.87;;;20.20;99.90;;;;;;5036251;28;20645;-61
2023/06/22 05:22:48;;;;;;;10.00;8.77;;;20.30;99.90;;;;;;5028406;28;20560;-61
2023/06/22 05:25:15;;;;;;;12.57;9.60;;;20.30;99.90;;;;;;5036789;28;20373;-62
2023/06/22 05:27:43;;;;;;;11.53;9.23;;;20.30;99.90;;;;;;5037789;28;20263;-62
2023/06/22 05:30:11;;;;;;;11.17;9.23;;;20.30;99.90;;;;;;5038794;28;20200;-62
2023/06/22 05:32:38;;;;;;;11.73;10.20;;;20.30;99.90;;;;;;5038252;28;20262;-61
2023/06/22 05:35:05;;;;;;;10.73;9.53;;;20.50;99.90;;;;;;5039516;28;20269;-62
2023/06/22 05:37:33;;;;;;;11.07;9.50;;;20.60;99.90;;;;;;5040444;28;20210;-65
2023/06/22 05:40:00;;;;;;;11.40;9.77;;;20.60;99.90;;;;;;5042638;28;20402;-62
2023/06/22 05:42:27;;;;;;;11.33;9.77;;;20.70;99.90;;;;;;5042047;28;20286;-62
2023/06/22 05:44:54;;;;;;;11.50;10.27;;;20.90;99.90;;;;;;5037439;28;20212;-62
2023/06/22 05:47:22;;;;;;;12.57;9.70;;;20.80;99.90;;;;;;5040154;28;20203;-62
2023/06/22 05:49:49;;;;;;;12.27;10.60;;;21.00;99.90;;;;;;5040468;28;20283;-62
2023/06/22 05:52:16;;;;;;;12.67;10.07;;;20.90;99.90;;;;;;5039464;28;20193;-62
2023/06/22 05:54:44;;;;;;;11.03;9.93;;;20.90;99.90;;;;;;5022730;28;20262;-62
2023/06/22 05:57:11;;;;;;;10.83;9.83;;;21.10;99.90;;;;;;5039761;28;20554;-62
2023/06/22 05:59:38;;;;;;;14.97;9.70;;;21.10;99.90;;;;;;5039744;28;20236;-62
2023/06/22 06:02:05;;;;;;;12.53;10.53;;;21.20;99.90;;;;;;5032080;28;21604;-62
2023/06/22 06:04:32;;;;;;;12.30;11.00;;;21.30;99.90;;;;;;5023231;28;20730;-63
2023/06/22 06:06:59;;;;;;;12.53;11.07;;;21.30;99.90;;;;;;5038895;28;20549;-63
2023/06/22 06:09:26;;;;;;;11.80;10.30;;;21.20;99.90;;;;;;5039227;28;20204;-63
2023/06/22 06:11:53;;;;;;;14.93;11.40;;;21.30;99.90;;;;;;5039464;28;20207;-64
2023/06/22 06:14:20;;;;;;;13.63;11.07;;;21.40;99.90;;;;;;5039873;28;20257;-62
2023/06/22 06:16:48;;;;;;;13.73;10.47;;;21.60;99.90;;;;;;5040606;28;20299;-62
2023/06/22 06:19:15;;;;;;;14.37;11.27;;;21.90;99.90;;;;;;5038851;28;20227;-62
2023/06/22 06:21:42;;;;;;;15.63;12.73;;;21.90;99.90;;;;;;5036581;28;20197;-63
2023/06/22 06:24:09;;;;;;;13.70;11.77;;;21.90;99.90;;;;;;5037692;28;21098;-61
2023/06/22 06:26:36;;;;;;;13.13;11.80;;;21.70;99.90;;;;;;5039544;28;20227;-61
2023/06/22 06:29:03;;;;;;;15.03;12.10;;;21.80;99.90;;;;;;5038103;28;20200;-63
2023/06/22 06:31:30;;;;;;;15.87;12.20;;;22.00;99.90;;;;;;5039246;28;20242;-60
2023/06/22 06:33:57;;;;;;;13.67;12.03;;;22.00;99.90;;;;;;5040185;28;20222;-62
2023/06/22 06:36:24;;;;;;;14.03;12.07;;;22.00;99.90;;;;;;5022581;28;20661;-62
2023/06/22 06:38:51;;;;;;;13.67;12.13;;;22.00;99.90;;;;;;5039426;28;20196;-62
2023/06/22 06:41:19;;;;;;;15.70;12.63;;;22.10;99.90;;;;;;5037891;28;20200;-61
2023/06/22 06:43:45;;;;;;;16.83;12.13;;;22.00;99.90;;;;;;5039535;28;20571;-61
2023/06/22 06:46:12;;;;;;;15.10;13.50;;;21.80;99.90;;;;;;5039412;28;20208;-62
2023/06/22 06:48:39;;;;;;;14.03;12.33;;;22.00;99.90;;;;;;5041016;28;20260;-61
2023/06/22 06:51:09;;;;;;;16.03;14.33;;;22.00;99.90;;;;;;5037844;28;20242;-61
2023/06/22 06:53:37;;;;;;;15.43;12.87;;;22.10;99.90;;;;;;5039860;28;20201;-61
2023/06/22 06:56:05;;;;;;;16.57;13.20;;;22.10;99.90;;;;;;5040752;28;20875;-62
2023/06/22 06:58:32;;;;;;;15.30;13.63;;;22.10;99.90;;;;;;5039976;28;20331;-66
2023/06/22 07:00:59;;;;;;;15.57;13.90;;;22.00;99.90;;;;;;5036181;28;20199;-61
2023/06/22 07:03:26;;;;;;;15.83;14.10;;;22.10;99.90;;;;;;5037785;28;20258;-62
2023/06/22 07:05:53;;;;;;;17.20;14.23;;;22.30;99.90;;;;;;5019437;28;20245;-61
2023/06/22 07:08:20;;;;;;;15.97;14.27;;;22.30;99.90;;;;;;5037425;28;20576;-62
2023/06/22 07:10:47;;;;;;;15.10;13.50;;;22.50;99.90;;;;;;5036028;28;20640;-61
2023/06/22 07:13:13;;;;;;;15.30;13.70;;;22.40;99.90;;;;;;5039459;28;20211;-61
2023/06/22 07:15:40;;;;;;;16.47;14.77;;;22.40;99.90;;;;;;5021986;28;20219;-62
2023/06/22 07:18:07;;;;;;;16.77;14.50;;;22.30;99.90;;;;;;5038873;28;20277;-61
2023/06/22 07:20:34;;;;;;;17.47;14.17;;;22.30;99.90;;;;;;5038464;28;20251;-61
2023/06/22 07:23:01;;;;;;;21.20;14.70;;;22.30;99.90;;;;;;5040808;28;20728;-61
2023/06/22 07:25:28;;;;;;;17.33;14.90;;;22.50;99.90;;;;;;5036658;28;20276;-61
2023/06/22 07:28:01;;;;;;;16.70;14.83;;;22.60;99.90;;;;;;5037747;28;20261;-61
2023/06/22 07:30:29;;;;;;;17.40;14.57;;;22.80;99.90;;;;;;5037425;28;20222;-61
2023/06/22 07:32:58;;;;;;;18.30;15.67;;;22.70;99.90;;;;;;5037465;28;20285;-60
2023/06/22 07:35:25;;;;;;;18.43;16.57;;;22.60;99.90;;;;;;5038829;28;20352;-61
2023/06/22 07:37:52;;;;;;;17.83;15.40;;;22.70;99.90;;;;;;5022994;28;20212;-61
2023/06/22 07:40:18;;;;;;;16.47;14.77;;;22.80;99.90;;;;;;5037657;28;21154;-61
2023/06/22 07:42:48;;;;;;;17.17;14.93;;;22.70;99.90;;;;;;5035460;28;20254;-61
2023/06/22 07:45:15;;;;;;;16.93;15.20;;;22.90;99.90;;;;;;5037206;28;20214;-61
2023/06/22 07:47:41;;;;;;;22.07;14.67;;;22.80;99.90;;;;;;5021245;28;20679;-61
2023/06/22 07:50:09;;;;;;;18.30;14.73;;;22.80;99.90;;;;;;5017120;28;20196;-61
2023/06/22 07:52:36;;;;;;;16.47;14.77;;;22.80;99.90;;;;;;5033837;28;20204;-61
2023/06/22 07:55:03;;;;;;;17.00;14.93;;;22.90;99.90;;;;;;5039379;28;20588;-61
2023/06/22 07:57:34;;;;;;;17.17;15.33;;;22.80;99.90;;;;;;5039984;28;20506;-61
2023/06/22 08:00:08;;;;;;;17.00;15.20;;;22.90;99.90;;;;;;5021011;28;20196;-61
2023/06/22 08:02:34;;;;;;;19.80;16.07;;;23.00;99.90;;;;;;5036765;28;20292;-61
2023/06/22 08:05:01;;;;;;;15.97;13.97;;;22.90;99.90;;;;;;5038304;28;20291;-60
2023/06/22 08:07:44;;;;;;;17.40;15.27;;;23.00;99.90;;;;;;5023599;28;20294;-64
2023/06/22 08:10:14;;;;;;;18.50;15.97;;;22.70;99.90;;;;;;5038627;28;20207;-63
2023/06/22 08:12:41;;;;;;;19.30;17.35;;;22.70;99.90;;;;;;5035586;28;20574;-61
2023/06/22 08:15:09;;;;;;;17.27;14.67;;;22.80;99.90;;;;;;5041101;28;21129;-61
2023/06/22 08:17:39;;;;;;;18.27;15.07;;;22.80;99.90;;;;;;5031090;28;20729;-61
2023/06/22 08:20:13;;;;;;;16.43;14.30;;;22.90;99.90;;;;;;5021449;28;20266;-61
2023/06/22 08:22:43;;;;;;;15.27;13.20;;;23.00;99.90;;;;;;5037725;28;20570;-61
2023/06/22 08:25:10;;;;;;;20.63;14.27;;;23.10;99.90;;;;;;5042528;28;20247;-61
2023/06/22 08:27:37;;;;;;;19.23;16.23;;;22.90;99.90;;;;;;5038917;28;20458;-62
2023/06/22 08:30:05;;;;;;;15.73;13.53;;;22.90;99.90;;;;;;5041106;28;20212;-63
2023/06/22 08:32:34;;;;;;;14.77;13.37;;;23.20;99.90;;;;;;5040834;28;20347;-62
2023/06/22 08:35:01;;;;;;;16.27;12.77;;;23.00;99.90;;;;;;5038009;28;20324;-62
2023/06/22 08:37:31;;;;;;;14.23;12.83;;;23.10;99.90;;;;;;5032810;28;20239;-62
2023/06/22 08:40:08;;;;;;;17.73;13.37;;;23.00;99.90;;;;;;5019186;28;20706;-62
2023/06/22 08:42:40;;;;;;;16.27;13.17;;;23.00;99.90;;;;;;5037139;28;20199;-62
2023/06/22 08:45:07;;;;;;;13.80;12.30;;;23.20;99.90;;;;;;5034321;28;20208;-62
2023/06/22 08:47:34;;;;;;;15.00;13.00;;;23.30;99.90;;;;;;5019566;28;20208;-62
2023/06/22 08:50:03;;;;;;;13.53;12.10;;;23.30;99.90;;;;;;5022897;28;20522;-63
2023/06/22 08:52:30;;;;;;;15.17;11.97;;;23.30;99.90;;;;;;5034867;28;20820;-62
2023/06/22 08:54:58;;;;;;;14.83;13.00;;;23.40;99.90;;;;;;5039750;28;20628;-62
2023/06/22 08:57:25;;;;;;;14.57;13.07;;;23.30;99.90;;;;;;5038888;28;20229;-64
2023/06/22 08:59:53;;;;;;;14.50;12.47;;;23.20;99.90;;;;;;5041259;28;20203;-64
2023/06/22 09:02:20;;;;;;;13.37;11.93;;;23.00;99.90;;;;;;5019068;28;20206;-62
2023/06/22 09:04:47;;;;;;;12.63;11.20;;;23.00;99.90;;;;;;5040238;28;20333;-62
2023/06/22 09:07:14;;;;;;;12.53;10.50;;;23.00;99.90;;;;;;5036469;28;20201;-62
2023/06/22 09:09:41;;;;;;;13.13;11.37;;;22.90;99.90;;;;;;5033756;28;20196;-62
2023/06/22 09:12:08;;;;;;;12.70;10.37;;;23.00;99.90;;;;;;5017732;28;20566;-62
2023/06/22 09:14:35;;;;;;;14.37;10.53;;;23.10;99.90;;;;;;5020025;28;20204;-62
2023/06/22 09:17:02;;;;;;;13.00;11.03;;;23.20;99.90;;;;;;5040310;28;20214;-62
2023/06/22 09:19:29;;;;;;;12.27;10.50;;;23.20;99.90;;;;;;5040622;28;20264;-61
2023/06/22 09:21:56;;;;;;;13.03;11.63;;;23.20;99.90;;;;;;5033217;28;20208;-63
2023/06/22 09:24:23;;;;;;;13.03;11.07;;;23.20;99.90;;;;;;5037494;28;20206;-63
2023/06/22 09:26:50;;;;;;;13.27;9.80;;;23.10;99.90;;;;;;5038610;28;20200;-66
2023/06/22 09:29:17;;;;;;;11.37;9.80;;;23.00;99.90;;;;;;5041329;28;20204;-63
2023/06/22 09:31:44;;;;;;;11.53;9.73;;;23.00;99.90;;;;;;5039717;28;20228;-63
2023/06/22 09:34:11;;;;;;;12.23;9.27;;;23.00;99.90;;;;;;5042441;28;20628;-64
2023/06/22 09:36:39;;;;;;;10.07;8.57;;;23.10;99.90;;;;;;5038793;28;20216;-63
2023/06/22 09:39:06;;;;;;;10.03;8.47;;;23.10;99.90;;;;;;5041238;28;20204;-62
2023/06/22 09:41:33;;;;;;;9.63;8.53;;;23.20;99.90;;;;;;5034537;28;20230;-61
2023/06/22 09:44:00;;;;;;;9.67;8.30;;;23.20;99.90;;;;;;5020444;28;20202;-63
2023/06/22 09:46:27;;;;;;;9.97;8.67;;;23.20;99.90;;;;;;5034348;28;20556;-62
2023/06/22 09:48:54;;;;;;;8.57;7.70;;;23.20;99.90;;;;;;5040910;28;20221;-62
2023/06/22 09:51:23;;;;;;;10.50;7.73;;;23.30;99.90;;;;;;5037018;28;20924;-62
2023/06/22 09:53:51;;;;;;;8.63;7.83;;;23.20;99.90;;;;;;5039864;28;20194;-66
2023/06/22 09:56:17;;;;;;;8.87;7.97;;;23.20;99.90;;;;;;5039862;28;20599;-61
2023/06/22 09:58:46;;;;;;;8.70;7.80;;;23.30;99.90;;;;;;5026557;28;20285;-61
2023/06/22 10:01:16;;;;;;;9.17;8.20;;;23.30;99.90;;;;;;5035932;28;20268;-61
2023/06/22 10:03:43;;;;;;;10.20;9.10;;;23.30;99.90;;;;;;5034987;28;20189;-62
2023/06/22 10:06:10;;;;;;;11.63;9.00;;;23.30;99.90;;;;;;5039810;28;20250;-67
2023/06/22 10:08:37;;;;;;;9.97;8.13;;;23.30;99.90;;;;;;5040872;28;20222;-64
2023/06/22 10:11:05;;;;;;;10.13;9.13;;;23.40;99.90;;;;;;5040382;28;20272;-62
2023/06/22 10:13:32;;;;;;;10.87;8.50;;;23.30;99.90;;;;;;5035447;28;20235;-62
2023/06/22 10:15:59;;;;;;;9.70;8.67;;;23.40;99.90;;;;;;5040049;28;20698;-62
2023/06/22 10:18:26;;;;;;;9.30;8.27;;;23.30;99.90;;;;;;5038486;28;20595;-62
2023/06/22 10:20:53;;;;;;;8.40;7.43;;;23.40;99.90;;;;;;5035063;28;20200;-61
2023/06/22 10:23:20;;;;;;;9.87;7.73;;;23.50;99.90;;;;;;5035989;28;20204;-62
2023/06/22 10:25:48;;;;;;;7.90;7.10;;;23.40;99.90;;;;;;5037646;28;20254;-65
2023/06/22 10:28:15;;;;;;;9.13;7.57;;;23.30;99.90;;;;;;5036886;28;20290;-64
2023/06/22 10:30:42;;;;;;;8.37;7.53;;;23.30;99.90;;;;;;5039489;28;20677;-65
2023/06/22 10:33:09;;;;;;;10.43;8.03;;;23.40;99.90;;;;;;5040306;28;20207;-63
2023/06/22 10:35:40;;;;;;;8.60;7.70;;;23.40;99.90;;;;;;5039027;28;20559;-62
2023/06/22 10:38:07;;;;;;;8.63;7.63;;;23.30;99.90;;;;;;5040448;28;20202;-63
2023/06/22 10:40:34;;;;;;;8.60;7.80;;;23.30;99.90;;;;;;5040663;28;20200;-63
2023/06/22 10:43:01;;;;;;;9.60;7.33;;;23.30;99.90;;;;;;5037680;28;20287;-62
2023/06/22 10:45:28;;;;;;;7.57;6.73;;;23.30;99.90;;;;;;5026910;28;20218;-62
2023/06/22 10:47:56;;;;;;;10.07;7.10;;;23.40;99.90;;;;;;5039489;28;20208;-67
2023/06/22 10:50:24;;;;;;;8.03;7.23;;;23.30;99.90;;;;;;5036509;28;20254;-62
2023/06/22 10:52:51;;;;;;;10.33;7.33;;;23.40;99.90;;;;;;5036530;28;20392;-62
2023/06/22 10:55:18;;;;;;;9.53;7.47;;;23.40;99.90;;;;;;5034333;28;20283;-62
2023/06/22 10:57:46;;;;;;;9.67;6.77;;;23.40;99.90;;;;;;5035770;28;20202;-62
2023/06/22 11:00:15;;;;;;;8.63;7.17;;;23.40;99.90;;;;;;5033495;28;20215;-62
2023/06/22 11:02:43;;;;;;;8.73;7.83;;;23.40;99.90;;;;;;5035671;28;20204;-64
2023/06/22 11:05:11;;;;;;;12.03;7.77;;;23.50;99.90;;;;;;5034737;28;20207;-63
2023/06/22 11:07:41;;;;;;;9.47;7.90;;;23.50;99.90;;;;;;5020334;28;20523;-62
2023/06/22 11:10:10;;;;;;;7.77;7.00;;;23.40;99.90;;;;;;5039759;28;20643;-62
2023/06/22 11:12:37;;;;;;;9.60;7.73;;;23.50;99.90;;;;;;5040097;28;20583;-62
2023/06/22 11:15:04;;;;;;;7.77;7.07;;;23.50;99.90;;;;;;5040014;28;20695;-62
2023/06/22 11:17:31;;;;;;;7.77;6.97;;;23.60;99.90;;;;;;5038647;28;20219;-62
2023/06/22 11:20:00;;;;;;;8.13;7.33;;;23.50;99.90;;;;;;5038951;28;20640;-62
2023/06/22 11:22:27;;;;;;;7.83;7.00;;;23.60;99.90;;;;;;5039269;28;20214;-62
2023/06/22 11:24:54;;;;;;;7.63;6.77;;;23.70;99.90;;;;;;5038219;28;20263;-63
2023/06/22 11:27:21;;;;;;;8.33;7.53;;;23.60;99.90;;;;;;5037977;28;20214;-62
2023/06/22 11:29:48;;;;;;;8.63;7.40;;;23.60;99.90;;;;;;5037381;28;20208;-62
2023/06/22 11:32:15;;;;;;;8.03;7.23;;;23.20;99.90;;;;;;5038292;28;20212;-63
2023/06/22 11:34:42;;;;;;;11.83;7.23;;;23.20;99.90;;;;;;5038102;28;20303;-61
2023/06/22 11:37:08;;;;;;;8.20;7.40;;;22.90;99.90;;;;;;5038029;28;20211;-62
2023/06/22 11:39:35;;;;;;;8.90;8.00;;;23.00;99.90;;;;;;5038786;28;20201;-62
2023/06/22 11:42:13;;;;;;;8.47;7.50;;;22.90;99.90;;;;;;5038036;28;20572;-62
2023/06/22 11:44:40;;;;;;;8.43;7.63;;;22.70;99.90;;;;;;5037148;28;20252;-62
2023/06/22 11:47:07;;;;;;;10.67;8.20;;;22.80;99.90;;;;;;5037449;28;20266;-62
2023/06/22 11:49:34;;;;;;;8.67;7.77;;;22.70;99.90;;;;;;5022978;28;20583;-63
2023/06/22 11:52:01;;;;;;;10.63;7.97;;;22.50;99.90;;;;;;5040485;28;20214;-63
2023/06/22 11:54:27;;;;;;;11.73;9.27;;;22.40;99.90;;;;;;5040630;28;20218;-63
2023/06/22 11:56:55;;;;;;;10.77;9.73;;;22.30;99.90;;;;;;5041668;28;20219;-62
2023/06/22 11:59:22;;;;;;;11.30;9.73;;;22.20;99.90;;;;;;5023947;28;20250;-62
2023/06/22 12:01:51;;;;;;;10.97;9.83;;;22.20;99.90;;;;;;5042166;28;20213;-61
2023/06/22 12:04:18;;;;;;;13.40;10.67;;;22.30;99.90;;;;;;5042648;28;20567;-62
2023/06/22 12:06:45;;;;;;;15.23;11.07;;;22.40;99.90;;;;;;5025287;28;20333;-63
2023/06/22 12:09:13;;;;;;;14.00;11.83;;;22.30;99.90;;;;;;5041293;28;20207;-62
2023/06/22 12:11:40;;;;;;;14.80;11.53;;;22.30;99.90;;;;;;5039288;28;20212;-63
2023/06/22 12:14:07;;;;;;;15.20;12.67;;;22.20;99.90;;;;;;5041875;28;20214;-61
2023/06/22 12:16:34;;;;;;;16.53;12.90;;;22.20;99.90;;;;;;5036751;28;20613;-61
2023/06/22 12:19:01;;;;;;;16.10;12.53;;;22.10;99.90;;;;;;5041240;28;20314;-61
2023/06/22 12:21:28;;;;;;;17.40;12.93;;;22.00;99.90;;;;;;5040527;28;20196;-61
2023/06/22 12:23:55;;;;;;;16.83;13.77;;;21.80;99.90;;;;;;5042856;28;20790;-61
2023/06/22 12:26:22;;;;;;;16.67;13.90;;;21.80;99.90;;;;;;5035707;28;20238;-62
2023/06/22 12:28:50;;;;;;;15.70;14.13;;;21.80;99.90;;;;;;5038634;28;20223;-61
2023/06/22 12:31:17;;;;;;;16.50;14.80;;;21.80;99.90;;;;;;5014025;28;20204;-62
2023/06/22 12:33:44;;;;;;;17.30;14.57;;;21.70;99.90;;;;;;5033052;28;20226;-61
2023/06/22 12:36:11;;;;;;;14.13;12.73;;;21.60;99.90;;;;;;5037242;28;20765;-61
2023/06/22 12:38:38;;;;;;;15.23;13.63;;;21.40;99.90;;;;;;5014017;28;20705;-62
2023/06/22 12:41:05;;;;;;;13.67;12.10;;;21.30;99.90;;;;;;5039253;28;20303;-62